Ely Airport Yelland Field
KELY : now visible

Airfield :











YOU CAN JOIN US ON...

 
LOGIN :

Register | Disclaimer

   EN    FR    IT 

 









Legend :    VFR   Marginal VFR   IFR   Intensive IFR   Very Intensive IFR
Visi :
Ceiling :
>= 8 km
>= 3000ft
5 to 8 km
1000 to 3000 ft
1500m to 5 km
500 to 1000 ft
800 to 1500m
200 to 500 ft
< 800m
< 200 ft
Symbols :   Thunderstorms  Fog  Heavy snow  Heavy precipitations  Wind > 20 kt






- Airport Elevation : 6259 ft


KELY - Ely Yelland Field

CURRENT METAR :
  • 270253Z AUTO 21009KT 10SM BKN044 M07/M10 A2984 RMK AO2 SLP138 T10671100 51017

EXPIRED METARs :
  • 270153Z AUTO 16012KT 10SM OVC050 M06/M09 A2983 RMK AO2 SLP134 T10561094
  • 270053Z AUTO 18008KT 10SM OVC046 M04/M09 A2981 RMK AO2 SLP119 T10391089

TAF KELY
Valid from the 27 at 00:00 until the 28 at 00:00 UTC


262320Z 2700/2724 18008KT P6SM VCSH FEW035 BKN040 BKN060
FM270400 17011G19KT P6SM BKN060 BKN200
FM270700 17014G26KT P6SM BKN090 OVC200
FM271200 17016G30KT P6SM VCSH OVC045
FM271400 17016G31KT P6SM OVC060
FM271900 17017G32KT P6SM VCSH OVC045
KZLC FIR / North America



MET'MAP, your aeronautical weather chart ! - Copyright ORBIFLY December 2007 - Disclaimer

ORBIFLY MET'MAP TEAM :

Programming & Development : Alexandra Zaïnal
Concept & original design : Baudouin d'Aumeries
Assistance for programming : Marc-Olivier Méhu
Technical & hardware support : Manuel Goepfert

Contact : metmap@orbifly.com




SOURCES & CREDITS :

   NOAA       Earth
Advisory